Time;durP1;ratioP1;P1;durP2;ratioP2;P2;SDS_P1;SDS_P2;PMS_P1;PMS_P2;Temp;Humidity;BMP_temperature;BMP_pressure;BME280_temperature;BME280_humidity;BME280_pressure;Samples;Min_cycle;Max_cycle;Signal;HPM_P1;HPM_P2
2024/01/21 00:01:41;;;;;;;;;;;0.00;99.90;;;;;;5022849;28;19922;-62
2024/01/21 00:04:07;;;;;;;;;;;-0.10;99.90;;;;;;5038143;28;19960;-62
2024/01/21 00:06:32;;;;;;;;;;;0.00;99.90;;;;;;5014027;28;19917;-61
2024/01/21 00:08:58;;;;;;;;;;;0.00;99.90;;;;;;5022891;28;19917;-62
2024/01/21 00:11:23;;;;;;;;;;;0.00;99.90;;;;;;5022317;28;19913;-62
2024/01/21 00:13:49;;;;;;;;;;;0.00;99.90;;;;;;5022948;28;19919;-62
2024/01/21 00:16:14;;;;;;;;;;;0.00;99.90;;;;;;5038525;28;19981;-62
2024/01/21 00:18:40;;;;;;;;;;;0.00;99.90;;;;;;5028886;28;20338;-62
2024/01/21 00:21:06;;;;;;;;;;;0.00;99.90;;;;;;5023070;28;19924;-62
2024/01/21 00:23:31;;;;;;;;;;;0.00;99.90;;;;;;5022752;28;19974;-62
2024/01/21 00:25:58;;;;;;;;;;;0.00;99.90;;;;;;5022818;28;19935;-62
2024/01/21 00:28:24;;;;;;;;;;;0.10;99.90;;;;;;5022550;28;19958;-62
2024/01/21 00:30:49;;;;;;;;;;;0.00;99.90;;;;;;5022520;28;19929;-62
2024/01/21 00:33:15;;;;;;;;;;;0.10;99.90;;;;;;5022490;28;19960;-62
2024/01/21 00:35:40;;;;;;;;;;;0.10;99.90;;;;;;5022713;28;19920;-62
2024/01/21 00:38:06;;;;;;;;;;;0.10;99.90;;;;;;5037779;28;19947;-62
2024/01/21 00:40:31;;;;;;;;;;;0.10;99.90;;;;;;5021946;28;19966;-62
2024/01/21 00:42:59;;;;;;;;;;;0.10;99.90;;;;;;5037279;28;20329;-62
2024/01/21 00:45:27;;;;;;;;;;;0.10;99.90;;;;;;5022128;28;19992;-62
2024/01/21 00:47:53;;;;;;;;;;;0.10;99.90;;;;;;5022214;28;20020;-62
2024/01/21 00:50:19;;;;;;;;;;;0.10;99.90;;;;;;5022156;28;19991;-61
2024/01/21 00:52:44;;;;;;;;;;;0.10;99.90;;;;;;5021125;28;19913;-62
2024/01/21 00:55:10;;;;;;;;;;;0.10;99.90;;;;;;5021597;28;20350;-62
2024/01/21 00:57:35;;;;;;;;;;;0.10;99.90;;;;;;5022411;28;19921;-62
2024/01/21 01:00:01;;;;;;;;;;;0.10;99.90;;;;;;5022278;28;19940;-62
2024/01/21 01:02:26;;;;;;;;;;;0.20;99.90;;;;;;5021904;28;19966;-62
2024/01/21 01:04:52;;;;;;;;;;;0.10;99.90;;;;;;5022235;28;20377;-62
2024/01/21 01:07:18;;;;;;;;;;;0.10;99.90;;;;;;5021920;28;19913;-62
2024/01/21 01:09:43;;;;;;;;;;;0.10;99.90;;;;;;5022202;28;19909;-62
2024/01/21 01:12:09;;;;;;;;;;;0.10;99.90;;;;;;5021952;28;20575;-62
2024/01/21 01:14:34;;;;;;;;;;;0.20;99.90;;;;;;5021731;28;19921;-62
2024/01/21 01:17:00;;;;;;;;;;;0.20;99.90;;;;;;5022062;28;20407;-62
2024/01/21 01:19:25;;;;;;;;;;;0.20;99.90;;;;;;5022787;28;19913;-62
2024/01/21 01:21:51;;;;;;;;;;;0.20;99.90;;;;;;5025635;28;19920;-62
2024/01/21 01:24:17;;;;;;;;;;;0.20;99.90;;;;;;5025534;28;19913;-62
2024/01/21 01:26:42;;;;;;;;;;;0.20;99.90;;;;;;5025654;28;19909;-62
2024/01/21 01:29:08;;;;;;;;;;;0.20;99.90;;;;;;5024950;28;20048;-62
2024/01/21 01:31:33;;;;;;;;;;;0.20;99.90;;;;;;5025140;28;19913;-62
2024/01/21 01:33:59;;;;;;;;;;;0.20;99.90;;;;;;5007303;28;19951;-62
2024/01/21 01:36:24;;;;;;;;;;;0.20;99.90;;;;;;5024874;28;20015;-62
2024/01/21 01:38:50;;;;;;;;;;;0.20;99.90;;;;;;5024952;28;19956;-62
2024/01/21 01:41:18;;;;;;;;;;;0.20;99.90;;;;;;5024741;28;20373;-62
2024/01/21 01:43:43;;;;;;;;;;;0.20;99.90;;;;;;5025232;28;20393;-62
2024/01/21 01:46:09;;;;;;;;;;;0.20;99.90;;;;;;5024954;28;19913;-62
2024/01/21 01:48:34;;;;;;;;;;;0.20;99.90;;;;;;5025101;28;19921;-61
2024/01/21 01:51:03;;;;;;;;;;;0.20;99.90;;;;;;5024927;28;19913;-62
2024/01/21 01:53:29;;;;;;;;;;;0.20;99.90;;;;;;5024761;28;19986;-62
2024/01/21 01:55:55;;;;;;;;;;;0.20;99.90;;;;;;5024818;28;19928;-62
2024/01/21 01:58:26;;;;;;;;;;;0.20;99.90;;;;;;5024820;28;19955;-61
2024/01/21 02:00:52;;;;;;;;;;;0.20;99.90;;;;;;5024864;28;19917;-62
2024/01/21 02:03:17;;;;;;;;;;;0.20;99.90;;;;;;5024685;28;20050;-62
2024/01/21 02:05:43;;;;;;;;;;;0.30;99.90;;;;;;5024884;28;19916;-62
2024/01/21 02:08:08;;;;;;;;;;;0.30;99.90;;;;;;5024717;28;19917;-62
2024/01/21 02:10:34;;;;;;;;;;;0.20;99.90;;;;;;5024501;28;19917;-62
2024/01/21 02:12:59;;;;;;;;;;;0.20;99.90;;;;;;5024985;28;19937;-62
2024/01/21 02:15:25;;;;;;;;;;;0.30;99.90;;;;;;5024596;28;19917;-62
2024/01/21 02:17:50;;;;;;;;;;;0.20;99.90;;;;;;5039884;28;19913;-62
2024/01/21 02:20:16;;;;;;;;;;;0.20;99.90;;;;;;5022515;28;19913;-62
2024/01/21 02:22:42;;;;;;;;;;;0.20;99.90;;;;;;5024356;28;20361;-62
2024/01/21 02:25:07;;;;;;;;;;;0.30;99.90;;;;;;5024634;28;19920;-62
2024/01/21 02:27:34;;;;;;;;;;;0.30;99.90;;;;;;5038888;28;20119;-62
2024/01/21 02:29:59;;;;;;;;;;;0.30;99.90;;;;;;5023525;28;19921;-62
2024/01/21 02:32:26;;;;;;;;;;;0.30;99.90;;;;;;5023612;28;19924;-62
2024/01/21 02:34:52;;;;;;;;;;;0.30;99.90;;;;;;5024303;28;19935;-62
2024/01/21 02:37:18;;;;;;;;;;;0.30;99.90;;;;;;5012106;28;19913;-62
2024/01/21 02:39:43;;;;;;;;;;;0.30;99.90;;;;;;5024194;28;19913;-62
2024/01/21 02:42:09;;;;;;;;;;;0.30;99.90;;;;;;5023804;28;19924;-62
2024/01/21 02:44:34;;;;;;;;;;;0.30;99.90;;;;;;5024016;28;20389;-62
2024/01/21 02:46:59;;;;;;;;;;;0.30;99.90;;;;;;5023847;28;19913;-62
2024/01/21 02:49:28;;;;;;;;;;;0.30;99.90;;;;;;5023536;28;20145;-62
2024/01/21 02:51:57;;;;;;;;;;;0.30;99.90;;;;;;5023577;28;19996;-62
2024/01/21 02:54:23;;;;;;;;;;;0.30;99.90;;;;;;5023737;28;20274;-62
2024/01/21 02:56:49;;;;;;;;;;;0.30;99.90;;;;;;5024339;28;19917;-62
2024/01/21 02:59:14;;;;;;;;;;;0.30;99.90;;;;;;5023761;28;19935;-62
2024/01/21 03:01:40;;;;;;;;;;;0.30;99.90;;;;;;5023930;28;19913;-62
2024/01/21 03:04:05;;;;;;;;;;;0.30;99.90;;;;;;5024059;28;19920;-62
2024/01/21 03:06:31;;;;;;;;;;;0.30;99.90;;;;;;5024005;28;19913;-62
2024/01/21 03:08:56;;;;;;;;;;;0.40;99.90;;;;;;5023323;28;19925;-62
2024/01/21 03:11:22;;;;;;;;;;;0.30;99.90;;;;;;5023270;28;19997;-62
2024/01/21 03:13:47;;;;;;;;;;;0.30;99.90;;;;;;5023413;28;19916;-62
2024/01/21 03:16:13;;;;;;;;;;;0.40;99.90;;;;;;5023661;28;19909;-62
2024/01/21 03:18:38;;;;;;;;;;;0.40;99.90;;;;;;5021210;28;19935;-62
2024/01/21 03:21:05;;;;;;;;;;;0.30;99.90;;;;;;5005059;28;19913;-62
2024/01/21 03:23:31;;;;;;;;;;;0.40;99.90;;;;;;5023467;28;19992;-62
2024/01/21 03:25:56;;;;;;;;;;;0.40;99.90;;;;;;5023402;28;20032;-62
2024/01/21 03:28:22;;;;;;;;;;;0.30;99.90;;;;;;5038121;28;20409;-62
2024/01/21 03:30:47;;;;;;;;;;;0.40;99.90;;;;;;5023284;28;20015;-62
2024/01/21 03:33:13;;;;;;;;;;;0.40;99.90;;;;;;5023060;28;19992;-62
2024/01/21 03:35:38;;;;;;;;;;;0.40;99.90;;;;;;5023747;28;20389;-62
2024/01/21 03:38:04;;;;;;;;;;;0.40;99.90;;;;;;5023490;28;20012;-62
2024/01/21 03:40:29;;;;;;;;;;;0.40;99.90;;;;;;5022569;28;19974;-62
2024/01/21 03:42:55;;;;;;;;;;;0.40;99.90;;;;;;5023336;28;20609;-62
2024/01/21 03:45:20;;;;;;;;;;;0.30;99.90;;;;;;5022977;28;19950;-62
2024/01/21 03:47:46;;;;;;;;;;;0.40;99.90;;;;;;5005181;28;19917;-62
2024/01/21 03:50:11;;;;;;;;;;;0.30;99.90;;;;;;5022978;28;19997;-62
2024/01/21 03:52:37;;;;;;;;;;;0.40;99.90;;;;;;5022996;28;19996;-62
2024/01/21 03:55:02;;;;;;;;;;;0.40;99.90;;;;;;5023048;28;19958;-62
2024/01/21 03:57:28;;;;;;;;;;;0.40;99.90;;;;;;5022817;28;19916;-62
2024/01/21 03:59:53;;;;;;;;;;;0.40;99.90;;;;;;5023050;28;19913;-62
2024/01/21 04:02:20;;;;;;;;;;;0.30;99.90;;;;;;5022422;28;19918;-62
2024/01/21 04:04:46;;;;;;;;;;;0.40;99.90;;;;;;5038335;28;19966;-62
2024/01/21 04:07:11;;;;;;;;;;;0.40;99.90;;;;;;5022843;28;19913;-62
2024/01/21 04:09:36;;;;;;;;;;;0.30;99.90;;;;;;5022763;28;20399;-62
2024/01/21 04:12:02;;;;;;;;;;;0.30;99.90;;;;;;5022895;28;19913;-62
2024/01/21 04:14:28;;;;;;;;;;;0.30;99.90;;;;;;5022499;28;19958;-62
2024/01/21 04:16:53;;;;;;;;;;;0.30;99.90;;;;;;5022669;28;20318;-62
2024/01/21 04:19:19;;;;;;;;;;;0.30;99.90;;;;;;5019999;28;20000;-62
2024/01/21 04:21:44;;;;;;;;;;;0.30;99.90;;;;;;5022794;28;19957;-62
2024/01/21 04:24:10;;;;;;;;;;;0.30;99.90;;;;;;5025603;28;19940;-62
2024/01/21 04:26:35;;;;;;;;;;;0.40;99.90;;;;;;5031115;28;19920;-62
2024/01/21 04:29:01;;;;;;;;;;;0.30;99.90;;;;;;5004513;28;20008;-62
2024/01/21 04:31:26;;;;;;;;;;;0.40;99.90;;;;;;5022161;28;19994;-62
2024/01/21 04:33:52;;;;;;;;;;;0.40;99.90;;;;;;5022354;28;19920;-62
2024/01/21 04:36:18;;;;;;;;;;;0.30;99.90;;;;;;5037448;28;19909;-62
2024/01/21 04:38:44;;;;;;;;;;;0.30;99.90;;;;;;5022447;28;19920;-62
2024/01/21 04:41:11;;;;;;;;;;;0.30;99.90;;;;;;5022247;28;19913;-62
2024/01/21 04:43:37;;;;;;;;;;;0.30;99.90;;;;;;5014682;28;20016;-62
2024/01/21 04:46:02;;;;;;;;;;;0.30;99.90;;;;;;5022633;28;20405;-62
2024/01/21 04:48:28;;;;;;;;;;;0.40;99.90;;;;;;5022564;28;19917;-62
2024/01/21 04:50:53;;;;;;;;;;;0.40;99.90;;;;;;5022138;28;19909;-62
2024/01/21 04:53:19;;;;;;;;;;;0.30;99.90;;;;;;5040711;28;19948;-62
2024/01/21 04:55:44;;;;;;;;;;;0.40;99.90;;;;;;5028965;27;19999;-62
2024/01/21 04:58:10;;;;;;;;;;;0.40;99.70;;;;;;5029170;28;19913;-61
2024/01/21 05:00:35;;;;;;;;;;;0.40;99.80;;;;;;5028327;28;19970;-62
2024/01/21 05:03:01;;;;;;;;;;;0.40;99.80;;;;;;5028847;28;19913;-62
2024/01/21 05:05:26;;;;;;;;;;;0.40;99.60;;;;;;5010711;28;19920;-62
2024/01/21 05:07:52;;;;;;;;;;;0.40;99.80;;;;;;5028703;28;20064;-62
2024/01/21 05:10:17;;;;;;;;;;;0.40;99.70;;;;;;5043239;28;19925;-62
2024/01/21 05:12:43;;;;;;;;;;;0.40;99.80;;;;;;5021419;28;19917;-61
2024/01/21 05:15:08;;;;;;;;;;;0.40;99.70;;;;;;5028594;28;19917;-62
2024/01/21 05:17:34;;;;;;;;;;;0.40;99.40;;;;;;5028261;28;20168;-62
2024/01/21 05:19:59;;;;;;;;;;;0.40;99.70;;;;;;5026082;28;19921;-62
2024/01/21 05:22:27;;;;;;;;;;;0.40;99.80;;;;;;5028064;28;19936;-62
2024/01/21 05:24:53;;;;;;;;;;;0.40;99.70;;;;;;5028597;28;19916;-62
2024/01/21 05:27:18;;;;;;;;;;;0.40;99.90;;;;;;5043425;27;20008;-62
2024/01/21 05:29:44;;;;;;;;;;;0.40;99.80;;;;;;5028335;28;20404;-62
2024/01/21 05:32:09;;;;;;;;;;;0.40;99.70;;;;;;5028290;28;20747;-62
2024/01/21 05:34:35;;;;;;;;;;;0.40;99.50;;;;;;5028090;28;19924;-62
2024/01/21 05:37:00;;;;;;;;;;;0.40;99.70;;;;;;5028364;28;19914;-62
2024/01/21 05:39:27;;;;;;;;;;;0.40;99.70;;;;;;5027171;28;20225;-62
2024/01/21 05:42:03;;;;;;;;;;;0.40;99.70;;;;;;5028127;28;19954;-62
2024/01/21 05:44:28;;;;;;;;;;;0.40;99.70;;;;;;5027926;28;19915;-62
2024/01/21 05:46:54;;;;;;;;;;;0.40;99.60;;;;;;5027884;28;19917;-62
2024/01/21 05:49:19;;;;;;;;;;;0.40;99.70;;;;;;5027219;28;19917;-62
2024/01/21 05:51:45;;;;;;;;;;;0.40;99.70;;;;;;5028036;28;19966;-62
2024/01/21 05:54:10;;;;;;;;;;;0.40;99.70;;;;;;5027832;28;20041;-62
2024/01/21 05:56:36;;;;;;;;;;;0.40;99.80;;;;;;5027708;28;19924;-62
2024/01/21 05:59:02;;;;;;;;;;;0.40;99.70;;;;;;5027758;28;20367;-62
2024/01/21 06:01:27;;;;;;;;;;;0.40;99.70;;;;;;5027397;28;19932;-62
2024/01/21 06:03:53;;;;;;;;;;;0.40;99.70;;;;;;5026428;28;19910;-62
2024/01/21 06:06:18;;;;;;;;;;;0.40;99.60;;;;;;5024237;28;19920;-62
2024/01/21 06:08:44;;;;;;;;;;;0.40;99.70;;;;;;5024951;28;20274;-62
2024/01/21 06:11:09;;;;;;;;;;;0.40;99.70;;;;;;5024622;28;19914;-62
2024/01/21 06:13:35;;;;;;;;;;;0.40;99.60;;;;;;5024772;28;20000;-62
2024/01/21 06:16:01;;;;;;;;;;;0.40;99.70;;;;;;5024682;28;19917;-62
2024/01/21 06:18:26;;;;;;;;;;;0.40;99.70;;;;;;5024180;28;20288;-62
2024/01/21 06:20:52;;;;;;;;;;;0.40;99.40;;;;;;5024518;28;19913;-62
2024/01/21 06:23:17;;;;;;;;;;;0.40;99.80;;;;;;5024435;28;19910;-62
2024/01/21 06:25:43;;;;;;;;;;;0.40;99.70;;;;;;5024546;28;20196;-62
2024/01/21 06:28:08;;;;;;;;;;;0.40;99.70;;;;;;5029507;28;19921;-61
2024/01/21 06:30:34;;;;;;;;;;;0.40;99.70;;;;;;5023792;28;19945;-62
2024/01/21 06:32:59;;;;;;;;;;;0.40;99.60;;;;;;5024507;28;19996;-62
2024/01/21 06:35:26;;;;;;;;;;;0.40;99.70;;;;;;5005998;28;20682;-62
2024/01/21 06:37:52;;;;;;;;;;;0.40;99.70;;;;;;5006217;28;20692;-62
2024/01/21 06:40:18;;;;;;;;;;;0.40;99.60;;;;;;5023804;28;19944;-62
2024/01/21 06:42:43;;;;;;;;;;;0.40;99.50;;;;;;5024135;28;20052;-62
2024/01/21 06:45:11;;;;;;;;;;;0.40;99.70;;;;;;5024182;28;19913;-62
2024/01/21 06:47:37;;;;;;;;;;;0.40;99.70;;;;;;5023555;28;19917;-62
2024/01/21 06:50:03;;;;;;;;;;;0.40;99.60;;;;;;5024198;28;20102;-62
2024/01/21 06:52:28;;;;;;;;;;;0.40;99.60;;;;;;5023584;28;20000;-62
2024/01/21 06:54:54;;;;;;;;;;;0.40;99.60;;;;;;5023948;28;20342;-62
2024/01/21 06:57:20;;;;;;;;;;;0.40;99.60;;;;;;5024095;28;19913;-61
2024/01/21 06:59:46;;;;;;;;;;;0.40;99.60;;;;;;5023764;28;19920;-62
2024/01/21 07:02:11;;;;;;;;;;;0.40;99.60;;;;;;5023448;28;19914;-62
2024/01/21 07:04:37;;;;;;;;;;;0.40;99.60;;;;;;5023446;28;19913;-62
2024/01/21 07:07:03;;;;;;;;;;;0.40;99.60;;;;;;5023037;28;19913;-62
2024/01/21 07:09:29;;;;;;;;;;;0.40;99.30;;;;;;5023269;28;20234;-62
2024/01/21 07:11:55;;;;;;;;;;;0.50;99.60;;;;;;5023643;28;19924;-61
2024/01/21 07:14:20;;;;;;;;;;;0.40;99.60;;;;;;5023506;28;19946;-62
2024/01/21 07:16:46;;;;;;;;;;;0.50;99.70;;;;;;5022464;28;20005;-62
2024/01/21 07:19:11;;;;;;;;;;;0.50;99.60;;;;;;5004459;28;19919;-62
2024/01/21 07:21:37;;;;;;;;;;;0.50;99.60;;;;;;5022834;28;19977;-61
2024/01/21 07:24:03;;;;;;;;;;;0.50;99.50;;;;;;5023308;28;20003;-62
2024/01/21 07:26:29;;;;;;;;;;;0.50;99.70;;;;;;5038243;28;19913;-62
2024/01/21 07:28:54;;;;;;;;;;;0.50;99.60;;;;;;5022952;28;19978;-62
2024/01/21 07:31:20;;;;;;;;;;;0.50;99.40;;;;;;5022764;28;20503;-62
2024/01/21 07:33:45;;;;;;;;;;;0.50;99.70;;;;;;5023556;28;20262;-62
2024/01/21 07:36:11;;;;;;;;;;;0.50;99.60;;;;;;5023429;28;19913;-61
2024/01/21 07:38:37;;;;;;;;;;;0.50;99.80;;;;;;5023204;28;19913;-62
2024/01/21 07:41:03;;;;;;;;;;;0.50;99.50;;;;;;5023080;28;19952;-62
2024/01/21 07:43:29;;;;;;;;;;;0.50;99.50;;;;;;5023237;28;19909;-62
2024/01/21 07:45:54;;;;;;;;;;;0.50;99.70;;;;;;5038299;27;20498;-62
2024/01/21 07:48:20;;;;;;;;;;;0.50;99.60;;;;;;5022292;28;19925;-62
2024/01/21 07:50:46;;;;;;;;;;;0.50;99.60;;;;;;5022871;28;20448;-62
2024/01/21 07:53:12;;;;;;;;;;;0.50;99.60;;;;;;5022726;28;20332;-62
2024/01/21 07:55:37;;;;;;;;;;;0.50;99.60;;;;;;5022372;28;19913;-62
2024/01/21 07:58:03;;;;;;;;;;;0.60;99.70;;;;;;5005000;28;20000;-62
2024/01/21 08:00:29;;;;;;;;;;;0.50;99.60;;;;;;5022400;28;19909;-62
2024/01/21 08:02:54;;;;;;;;;;;0.60;99.80;;;;;;5005330;28;20102;-62
2024/01/21 08:05:20;;;;;;;;;;;0.60;99.80;;;;;;5022924;28;19913;-62
2024/01/21 08:07:46;;;;;;;;;;;0.60;99.80;;;;;;5023146;28;20284;-62
2024/01/21 08:10:12;;;;;;;;;;;0.60;99.70;;;;;;5022960;28;19913;-62
2024/01/21 08:12:37;;;;;;;;;;;0.60;99.70;;;;;;5022417;28;20370;-62
2024/01/21 08:15:03;;;;;;;;;;;0.60;99.60;;;;;;5022703;28;19938;-62
2024/01/21 08:17:29;;;;;;;;;;;0.60;99.70;;;;;;5022811;28;19913;-62
2024/01/21 08:19:54;;;;;;;;;;;0.60;99.70;;;;;;5023887;28;20349;-62
2024/01/21 08:22:20;;;;;;;;;;;0.60;99.60;;;;;;5022436;28;19966;-62
2024/01/21 08:24:49;;;;;;;;;;;0.60;99.60;;;;;;5022998;28;19924;-62
2024/01/21 08:27:14;;;;;;;;;;;0.60;99.40;;;;;;5036738;28;19913;-62
2024/01/21 08:29:40;;;;;;;;;;;0.70;99.60;;;;;;5022326;28;19974;-62
2024/01/21 08:32:07;;;;;;;;;;;0.60;99.30;;;;;;5022415;28;19917;-61
2024/01/21 08:34:33;;;;;;;;;;;0.70;99.40;;;;;;5022288;28;19939;-62
2024/01/21 08:36:58;;;;;;;;;;;0.70;99.50;;;;;;5022811;28;19909;-62
2024/01/21 08:39:24;;;;;;;;;;;0.70;99.50;;;;;;5037249;28;19913;-62
2024/01/21 08:41:49;;;;;;;;;;;0.80;99.50;;;;;;5022461;28;19920;-62
2024/01/21 08:44:15;;;;;;;;;;;0.70;99.50;;;;;;5022295;28;20253;-62
2024/01/21 08:46:41;;;;;;;;;;;0.80;99.50;;;;;;5040160;27;19949;-62
2024/01/21 08:49:06;;;;;;;;;;;0.80;99.60;;;;;;5021127;28;19976;-62
2024/01/21 08:51:32;;;;;;;;;;;0.80;99.40;;;;;;5021927;28;19924;-62
2024/01/21 08:53:57;;;;;;;;;;;0.80;99.50;;;;;;5022410;28;19993;-62
2024/01/21 08:56:26;;;;;;;;;;;0.80;99.50;;;;;;5022380;28;20382;-62
2024/01/21 08:58:52;;;;;;;;;;;0.90;99.50;;;;;;5022521;28;19944;-62
2024/01/21 09:01:17;;;;;;;;;;;0.90;99.40;;;;;;5021942;28;20324;-62
2024/01/21 09:03:43;;;;;;;;;;;0.90;99.30;;;;;;5018576;28;19920;-62
2024/01/21 09:06:09;;;;;;;;;;;0.90;99.30;;;;;;5016148;28;19925;-62
2024/01/21 09:08:34;;;;;;;;;;;0.90;99.30;;;;;;5021479;28;20011;-62
2024/01/21 09:11:00;;;;;;;;;;;0.90;99.30;;;;;;5021896;28;19966;-62
2024/01/21 09:13:26;;;;;;;;;;;1.00;99.40;;;;;;5021682;28;19917;-62
2024/01/21 09:15:51;;;;;;;;;;;1.00;99.20;;;;;;5021972;28;19966;-62
2024/01/21 09:18:17;;;;;;;;;;;1.00;99.20;;;;;;5036530;27;19917;-62
2024/01/21 09:20:42;;;;;;;;;;;1.10;99.00;;;;;;5021858;28;19910;-62
2024/01/21 09:23:08;;;;;;;;;;;1.10;99.00;;;;;;5021813;28;19973;-62
2024/01/21 09:25:34;;;;;;;;;;;1.10;98.90;;;;;;5021614;28;19913;-62
2024/01/21 09:27:59;;;;;;;;;;;1.20;98.90;;;;;;5021987;28;20307;-62
2024/01/21 09:30:25;;;;;;;;;;;1.20;98.70;;;;;;5021261;28;19931;-61
2024/01/21 09:32:50;;;;;;;;;;;1.30;98.70;;;;;;5022180;28;20512;-62
2024/01/21 09:35:15;;;;;;;;;;;1.30;98.40;;;;;;5021451;28;19920;-62
2024/01/21 09:37:41;;;;;;;;;;;1.30;98.50;;;;;;5021511;28;19917;-62
2024/01/21 09:40:07;;;;;;;;;;;1.40;98.40;;;;;;5021230;28;19936;-62
2024/01/21 09:42:33;;;;;;;;;;;1.40;98.30;;;;;;5034538;28;19970;-62
2024/01/21 09:44:58;;;;;;;;;;;1.40;98.40;;;;;;5023971;28;19927;-62
2024/01/21 09:47:24;;;;;;;;;;;1.50;98.30;;;;;;5023856;28;20495;-62
2024/01/21 09:49:50;;;;;;;;;;;1.50;98.40;;;;;;5023983;28;19917;-62
2024/01/21 09:52:18;;;;;;;;;;;1.60;98.20;;;;;;5024328;28;19949;-62
2024/01/21 09:54:45;;;;;;;;;;;1.60;98.20;;;;;;5022528;28;19920;-62
2024/01/21 09:57:11;;;;;;;;;;;1.60;98.20;;;;;;5024393;28;19945;-62
2024/01/21 09:59:37;;;;;;;;;;;1.60;98.00;;;;;;5024305;28;19962;-62
2024/01/21 10:02:03;;;;;;;;;;;1.60;98.20;;;;;;5024450;28;20461;-62
2024/01/21 10:04:29;;;;;;;;;;;1.60;98.10;;;;;;5024179;28;19913;-62
2024/01/21 10:06:55;;;;;;;;;;;1.70;97.90;;;;;;5024717;28;20245;-62
2024/01/21 10:09:21;;;;;;;;;;;1.70;98.10;;;;;;5024125;28;20365;-62
2024/01/21 10:11:47;;;;;;;;;;;1.70;98.10;;;;;;5024373;28;20047;-62
2024/01/21 10:14:13;;;;;;;;;;;1.70;98.20;;;;;;5024663;28;19973;-62
2024/01/21 10:16:42;;;;;;;;;;;1.80;98.20;;;;;;5024347;28;19921;-62
2024/01/21 10:19:10;;;;;;;;;;;1.70;98.30;;;;;;5020918;28;19920;-62
2024/01/21 10:21:36;;;;;;;;;;;1.80;98.30;;;;;;5023731;28;20446;-62
2024/01/21 10:24:01;;;;;;;;;;;1.80;98.10;;;;;;5023697;28;19940;-62
2024/01/21 10:26:27;;;;;;;;;;;1.80;98.30;;;;;;5024117;28;20257;-62
2024/01/21 10:28:52;;;;;;;;;;;1.90;98.30;;;;;;5024053;28;19917;-62
2024/01/21 10:31:18;;;;;;;;;;;2.00;98.10;;;;;;5039081;28;19909;-62
2024/01/21 10:33:44;;;;;;;;;;;2.10;98.10;;;;;;5024500;28;19917;-62
2024/01/21 10:36:10;;;;;;;;;;;2.20;97.80;;;;;;5024073;28;19913;-62
2024/01/21 10:38:41;;;;;;;;;;;2.20;97.80;;;;;;5023909;28;19921;-62
2024/01/21 10:41:08;;;;;;;;;;;2.20;97.80;;;;;;5024059;28;19910;-62
2024/01/21 10:43:34;;;;;;;;;;;2.20;98.00;;;;;;5021409;28;19913;-62
2024/01/21 10:46:00;;;;;;;;;;;2.20;97.90;;;;;;5024232;28;19913;-62
2024/01/21 10:48:25;;;;;;;;;;;2.20;97.90;;;;;;5022755;28;20328;-62
2024/01/21 10:50:52;;;;;;;;;;;2.20;98.00;;;;;;5023063;28;20012;-62
2024/01/21 10:53:19;;;;;;;;;;;2.20;98.00;;;;;;5023163;28;19917;-62
2024/01/21 10:55:44;;;;;;;;;;;2.20;98.20;;;;;;5023706;28;20007;-62
2024/01/21 10:58:10;;;;;;;;;;;2.20;98.40;;;;;;5023992;28;19996;-62
2024/01/21 11:00:37;;;;;;;;;;;2.20;98.30;;;;;;5018189;28;19926;-62
2024/01/21 11:03:25;;;;;;;;;;;2.30;98.30;;;;;;5023920;28;19913;-62
2024/01/21 11:05:52;;;;;;;;;;;2.20;98.30;;;;;;5016196;27;19965;-61
2024/01/21 11:08:18;;;;;;;;;;;2.30;98.30;;;;;;5019228;28;19917;-62
2024/01/21 11:10:44;;;;;;;;;;;2.30;98.30;;;;;;5023720;28;19914;-62
2024/01/21 11:13:30;;;;;;;;;;;2.30;98.30;;;;;;5024141;28;20261;-62
2024/01/21 11:15:55;;;;;;;;;;;2.40;98.30;;;;;;5022968;28;19917;-62
2024/01/21 11:18:22;;;;;;;;;;;2.40;98.30;;;;;;5019338;28;19921;-62
2024/01/21 11:20:59;;;;;;;;;;;2.40;98.20;;;;;;5022655;28;20301;-62
2024/01/21 11:23:25;;;;;;;;;;;2.40;98.30;;;;;;5022201;28;20358;-62
2024/01/21 11:25:52;;;;;;;;;;;2.50;98.30;;;;;;5022720;28;19914;-62
2024/01/21 11:28:28;;;;;;;;;;;2.50;98.20;;;;;;5022384;28;19925;-62
2024/01/21 11:31:01;;;;;;;;;;;2.60;98.30;;;;;;5022529;28;19977;-62
2024/01/21 11:33:27;;;;;;;;;;;2.60;98.30;;;;;;5022368;28;19924;-62
2024/01/21 11:35:53;;;;;;;;;;;2.70;98.40;;;;;;5022625;28;19966;-62
2024/01/21 11:38:19;;;;;;;;;;;2.70;98.20;;;;;;5022263;28;19912;-62
2024/01/21 11:40:44;;;;;;;;;;;2.70;98.20;;;;;;5022396;28;20604;-62
2024/01/21 11:43:10;;;;;;;;;;;2.70;98.20;;;;;;5004902;28;19909;-62
2024/01/21 11:45:38;;;;;;;;;;;2.70;98.20;;;;;;5021757;28;19929;-62
2024/01/21 11:48:09;;;;;;;;;;;2.70;98.40;;;;;;5031422;28;19913;-62
2024/01/21 11:50:34;;;;;;;;;;;2.70;98.40;;;;;;5021688;28;20035;-62
2024/01/21 11:53:01;;;;;;;;;;;2.70;98.60;;;;;;5022481;28;20581;-62
2024/01/21 11:55:26;;;;;;;;;;;2.70;98.60;;;;;;5021595;28;19924;-62
2024/01/21 11:57:52;;;;;;;;;;;2.70;98.70;;;;;;5022478;28;19913;-62
2024/01/21 12:00:18;;;;;;;;;;;2.70;98.80;;;;;;5021776;28;19913;-62
2024/01/21 12:02:45;;;;;;;;;;;2.70;98.80;;;;;;5020796;28;20387;-62
2024/01/21 12:05:11;;;;;;;;;;;2.80;98.70;;;;;;5022167;28;19913;-62
2024/01/21 12:07:36;;;;;;;;;;;2.80;98.90;;;;;;5021628;28;20544;-62
2024/01/21 12:10:02;;;;;;;;;;;2.80;98.90;;;;;;5021857;28;19920;-62
2024/01/21 12:12:27;;;;;;;;;;;2.80;98.90;;;;;;5036442;28;19913;-62
2024/01/21 12:14:53;;;;;;;;;;;2.80;98.90;;;;;;5021817;28;19941;-62
2024/01/21 12:17:19;;;;;;;;;;;2.80;98.90;;;;;;5004063;28;20691;-62
2024/01/21 12:19:44;;;;;;;;;;;2.80;99.00;;;;;;5018726;28;19920;-62
2024/01/21 12:22:10;;;;;;;;;;;2.80;99.00;;;;;;5022177;28;19920;-62
2024/01/21 12:24:39;;;;;;;;;;;2.80;99.10;;;;;;5021652;28;20301;-62
2024/01/21 12:27:04;;;;;;;;;;;2.90;99.20;;;;;;5022208;28;19914;-62
2024/01/21 12:29:38;;;;;;;;;;;2.90;99.20;;;;;;5021357;28;19921;-62
2024/01/21 12:32:06;;;;;;;;;;;2.90;99.20;;;;;;5021375;28;19910;-62
2024/01/21 12:34:33;;;;;;;;;;;2.90;99.20;;;;;;5032632;28;20316;-61
2024/01/21 12:36:58;;;;;;;;;;;2.90;99.20;;;;;;5044597;28;19978;-62
2024/01/21 12:39:24;;;;;;;;;;;3.00;99.20;;;;;;5044014;28;20036;-62
2024/01/21 12:41:49;;;;;;;;;;;3.00;99.20;;;;;;5033121;28;20000;-62
2024/01/21 12:44:15;;;;;;;;;;;3.00;99.20;;;;;;5021857;28;19920;-62
2024/01/21 12:46:42;;;;;;;;;;;3.00;99.30;;;;;;5021555;28;20022;-62
2024/01/21 12:49:08;;;;;;;;;;;3.00;99.40;;;;;;5021558;28;19924;-62
2024/01/21 12:51:34;;;;;;;;;;;3.00;99.40;;;;;;5021247;28;20346;-62
2024/01/21 12:54:00;;;;;;;;;;;2.90;99.40;;;;;;5003571;28;20364;-62
2024/01/21 12:56:26;;;;;;;;;;;2.90;99.40;;;;;;5021520;28;19913;-62
2024/01/21 12:58:52;;;;;;;;;;;3.00;99.40;;;;;;5021630;28;19917;-62
2024/01/21 13:01:17;;;;;;;;;;;3.00;99.50;;;;;;5021377;28;19913;-62
2024/01/21 13:03:43;;;;;;;;;;;3.00;99.40;;;;;;5019463;28;19917;-62
2024/01/21 13:06:09;;;;;;;;;;;3.00;99.40;;;;;;5016264;28;19917;-62
2024/01/21 13:08:35;;;;;;;;;;;3.00;99.30;;;;;;5019693;28;19924;-62
2024/01/21 13:11:01;;;;;;;;;;;3.10;99.30;;;;;;5021437;28;19913;-61
2024/01/21 13:13:28;;;;;;;;;;;3.10;99.30;;;;;;5021417;28;19936;-62
2024/01/21 13:15:53;;;;;;;;;;;3.10;99.20;;;;;;5040273;28;19960;-62
2024/01/21 13:18:19;;;;;;;;;;;3.20;99.20;;;;;;5020901;28;20024;-62
2024/01/21 13:20:44;;;;;;;;;;;3.20;99.20;;;;;;5024704;28;19973;-62
2024/01/21 13:23:10;;;;;;;;;;;3.20;99.10;;;;;;5040157;27;19913;-62
2024/01/21 13:25:36;;;;;;;;;;;3.20;99.00;;;;;;5024268;28;19924;-62
2024/01/21 13:28:16;;;;;;;;;;;3.20;99.10;;;;;;5024779;28;20433;-62
2024/01/21 13:30:49;;;;;;;;;;;3.20;99.10;;;;;;5049766;28;20388;-62
2024/01/21 13:33:16;;;;;;;;;;;3.20;99.30;;;;;;5025304;28;19952;-62
2024/01/21 13:35:42;;;;;;;;;;;3.20;99.30;;;;;;5024071;28;19958;-62
2024/01/21 13:38:12;;;;;;;;;;;3.20;99.40;;;;;;5025247;28;19913;-62
2024/01/21 13:40:38;;;;;;;;;;;3.20;99.50;;;;;;5024543;28;19961;-62
2024/01/21 13:43:03;;;;;;;;;;;3.10;99.50;;;;;;5025234;28;19955;-62
2024/01/21 13:45:29;;;;;;;;;;;3.10;99.60;;;;;;5026149;28;20342;-62
2024/01/21 13:47:55;;;;;;;;;;;3.10;99.60;;;;;;5036900;28;20436;-62
2024/01/21 13:50:20;;;;;;;;;;;3.10;99.70;;;;;;5079123;28;19995;-62
2024/01/21 13:52:46;;;;;;;;;;;3.10;99.60;;;;;;5024881;28;20072;-62
2024/01/21 13:55:11;;;;;;;;;;;3.10;99.80;;;;;;5024296;28;20030;-62
2024/01/21 13:57:37;;;;;;;;;;;3.10;99.90;;;;;;5032429;28;20433;-62
2024/01/21 14:00:03;;;;;;;;;;;3.10;99.90;;;;;;5092501;28;19997;-62
2024/01/21 14:02:29;;;;;;;;;;;3.10;99.90;;;;;;5024250;28;19914;-62
2024/01/21 14:04:54;;;;;;;;;;;3.10;99.90;;;;;;5024945;28;19945;-62
2024/01/21 14:07:20;;;;;;;;;;;3.10;99.90;;;;;;5024719;28;20265;-62
2024/01/21 14:09:45;;;;;;;;;;;3.10;99.90;;;;;;5040832;28;19945;-62
2024/01/21 14:12:16;;;;;;;;;;;3.10;99.90;;;;;;5039951;28;20032;-62
2024/01/21 14:14:42;;;;;;;;;;;3.10;99.90;;;;;;5032870;28;20691;-62
2024/01/21 14:17:07;;;;;;;;;;;3.10;99.90;;;;;;5024297;28;19944;-62
2024/01/21 14:19:33;;;;;;;;;;;3.00;99.90;;;;;;5023376;28;19962;-62
2024/01/21 14:21:59;;;;;;;;;;;3.00;99.90;;;;;;5024465;28;19909;-62
2024/01/21 14:24:30;;;;;;;;;;;3.10;99.90;;;;;;5023718;28;19920;-62